Time;durP1;ratioP1;P1;durP2;ratioP2;P2;SDS_P1;SDS_P2;PMS_P1;PMS_P2;Temp;Humidity;BMP_temperature;BMP_pressure;BME280_temperature;BME280_humidity;BME280_pressure;Samples;Min_cycle;Max_cycle;Signal;HPM_P1;HPM_P2
2021/12/09 00:01:22;;;;;;;15.45;8.10;;;;;;;5.81;100.00;98899.63;4989736;28;20502;-65
2021/12/09 00:04:00;;;;;;;16.20;8.18;;;;;;;5.80;100.00;98897.91;4990580;28;20030;-65
2021/12/09 00:06:28;;;;;;;18.02;9.65;;;;;;;5.79;100.00;98898.81;4980262;28;20476;-65
2021/12/09 00:08:57;;;;;;;13.02;7.90;;;;;;;5.79;100.00;98902.31;4990334;28;20030;-65
2021/12/09 00:11:23;;;;;;;16.92;8.40;;;;;;;5.79;100.00;98902.31;4990854;28;20073;-65
2021/12/09 00:13:49;;;;;;;14.75;8.85;;;;;;;5.72;100.00;98892.84;4988845;28;20491;-65
2021/12/09 00:16:15;;;;;;;21.08;8.80;;;;;;;5.75;100.00;98899.81;4977953;28;20033;-65
2021/12/09 00:18:41;;;;;;;16.88;8.80;;;;;;;5.66;100.00;98900.09;4969955;28;20591;-65
2021/12/09 00:21:06;;;;;;;16.55;9.35;;;;;;;5.60;100.00;98900.28;4977528;28;20026;-65
2021/12/09 00:23:32;;;;;;;16.13;7.93;;;;;;;5.55;100.00;98894.28;4972821;28;20101;-65
2021/12/09 00:25:57;;;;;;;13.80;8.07;;;;;;;5.48;100.00;98905.94;4969888;28;20030;-65
2021/12/09 00:28:23;;;;;;;16.98;7.80;;;;;;;5.48;100.00;98911.19;4971355;28;20483;-65
2021/12/09 00:30:49;;;;;;;13.52;7.15;;;;;;;5.42;100.00;98921.94;4973111;28;20452;-65
2021/12/09 00:33:16;;;;;;;14.60;7.95;;;;;;;5.35;100.00;98916.00;4973189;28;20031;-65
2021/12/09 00:35:46;;;;;;;24.85;7.85;;;;;;;5.26;100.00;98921.50;4985090;28;20356;-65
2021/12/09 00:38:20;;;;;;;13.93;8.40;;;;;;;5.26;100.00;98922.38;4984433;28;20148;-65
2021/12/09 00:40:46;;;;;;;13.13;7.57;;;;;;;5.23;100.00;98911.94;4990188;28;20025;-65
2021/12/09 00:43:12;;;;;;;12.10;6.10;;;;;;;5.25;100.00;98923.28;4990539;28;20046;-65
2021/12/09 00:45:37;;;;;;;13.90;6.95;;;;;;;5.18;100.00;98929.66;4981194;28;20504;-65
2021/12/09 00:48:03;;;;;;;18.13;8.00;;;;;;;5.17;100.00;98927.06;4992083;28;20481;-65
2021/12/09 00:50:29;;;;;;;11.40;6.93;;;;;;;5.14;100.00;98929.78;4993993;28;20026;-65
2021/12/09 00:52:54;;;;;;;12.25;7.05;;;;;;;5.07;100.00;98934.34;4984860;28;20394;-65
2021/12/09 00:55:20;;;;;;;13.75;6.65;;;;;;;4.99;100.00;98923.16;4996597;28;20026;-65
2021/12/09 00:57:46;;;;;;;12.77;6.80;;;;;;;4.97;100.00;98935.53;4973102;28;20034;-65
2021/12/09 01:00:16;;;;;;;15.93;7.07;;;;;;;4.97;100.00;98935.53;4976393;28;20030;-65
2021/12/09 01:02:42;;;;;;;13.90;8.55;;;;;;;5.01;100.00;98934.53;4991057;28;20038;-65
2021/12/09 01:05:10;;;;;;;13.55;7.68;;;;;;;4.93;100.00;98938.25;4993023;28;20060;-65
2021/12/09 01:07:37;;;;;;;15.85;8.23;;;;;;;4.82;100.00;98946.47;4994141;28;20105;-65
2021/12/09 01:10:06;;;;;;;13.45;7.55;;;;;;;4.75;100.00;98939.63;4984197;28;20050;-65
2021/12/09 01:12:32;;;;;;;17.35;7.97;;;;;;;4.74;100.00;98956.34;4989373;28;20044;-65
2021/12/09 01:14:58;;;;;;;12.13;7.28;;;;;;;4.69;100.00;98955.63;4991155;28;20135;-65
2021/12/09 01:17:23;;;;;;;16.42;7.85;;;;;;;4.70;100.00;98954.69;4983185;28;20483;-65
2021/12/09 01:19:50;;;;;;;13.80;9.35;;;;;;;4.74;100.00;98961.63;4976258;28;20105;-65
2021/12/09 01:22:16;;;;;;;16.88;7.55;;;;;;;4.78;100.00;98957.13;4973605;28;20030;-65
2021/12/09 01:24:41;;;;;;;15.70;7.88;;;;;;;4.86;100.00;98958.66;4974186;28;20379;-65
2021/12/09 01:27:07;;;;;;;15.93;9.70;;;;;;;4.92;100.00;98947.97;4986788;28;20035;-65
2021/12/09 01:29:37;;;;;;;14.27;7.30;;;;;;;5.04;100.00;98952.03;4973449;28;20093;-65
2021/12/09 01:32:06;;;;;;;11.90;8.18;;;;;;;5.12;100.00;98964.06;4978937;28;20022;-65
2021/12/09 01:34:33;;;;;;;15.65;8.20;;;;;;;5.18;100.00;98958.66;4992044;28;20034;-65
2021/12/09 01:36:59;;;;;;;16.00;7.53;;;;;;;5.23;100.00;98964.66;4992158;28;20034;-65
2021/12/09 01:39:27;;;;;;;13.82;7.70;;;;;;;5.26;100.00;98954.03;4992892;28;20478;-65
2021/12/09 01:41:53;;;;;;;13.98;9.00;;;;;;;5.32;100.00;98951.19;4985255;28;20025;-65
2021/12/09 01:44:18;;;;;;;16.13;7.65;;;;;;;5.38;100.00;98968.63;4988391;28;20010;-65
2021/12/09 01:46:44;;;;;;;13.43;8.65;;;;;;;5.41;100.00;98960.63;4992631;28;20038;-65
2021/12/09 01:49:10;;;;;;;14.35;8.73;;;;;;;5.42;100.00;98964.13;4992978;28;20032;-65
2021/12/09 01:51:35;;;;;;;13.32;10.18;;;;;;;5.42;100.00;98964.97;4989374;28;20029;-65
2021/12/09 01:54:01;;;;;;;15.82;7.93;;;;;;;5.45;100.00;98977.22;4984484;28;20026;-65
2021/12/09 01:56:28;;;;;;;14.00;8.43;;;;;;;5.37;100.00;98975.66;4992666;28;20026;-65
2021/12/09 01:58:58;;;;;;;12.75;7.57;;;;;;;5.29;100.00;98975.00;4993197;28;20040;-65
2021/12/09 02:01:24;;;;;;;11.63;7.25;;;;;;;5.20;100.00;98975.28;4980911;28;20054;-65
2021/12/09 02:03:50;;;;;;;11.38;7.43;;;;;;;5.06;100.00;98966.88;4972715;28;20027;-65
2021/12/09 02:06:17;;;;;;;12.98;6.70;;;;;;;5.06;100.00;98977.44;4982983;28;20025;-65
2021/12/09 02:08:43;;;;;;;9.55;6.38;;;;;;;5.07;100.00;98975.66;4992067;28;20034;-65
2021/12/09 02:11:09;;;;;;;12.13;7.00;;;;;;;5.12;100.00;98973.75;4991072;28;20030;-65
2021/12/09 02:13:35;;;;;;;14.40;7.13;;;;;;;5.12;100.00;98974.59;4992269;28;20417;-65
2021/12/09 02:16:01;;;;;;;12.32;6.10;;;;;;;5.05;100.00;98965.16;4982613;28;20019;-65
2021/12/09 02:18:27;;;;;;;11.90;6.05;;;;;;;5.04;100.00;98968.69;4992913;28;20157;-65
2021/12/09 02:21:14;;;;;;;12.60;6.40;;;;;;;5.06;100.00;98966.00;4988111;28;20042;-65
2021/12/09 02:23:44;;;;;;;8.43;5.78;;;;;;;5.07;100.00;98963.31;4979547;28;20027;-65
2021/12/09 02:26:10;;;;;;;14.35;6.22;;;;;;;4.93;100.00;98962.84;4979013;28;20452;-65
2021/12/09 02:28:36;;;;;;;8.93;5.85;;;;;;;4.89;100.00;98963.81;4988682;28;20045;-65
2021/12/09 02:31:02;;;;;;;10.20;5.63;;;;;;;4.83;100.00;98964.00;4990931;28;20030;-65
2021/12/09 02:33:28;;;;;;;12.52;6.75;;;;;;;4.81;100.00;98964.97;4988288;28;20386;-65
2021/12/09 02:35:54;;;;;;;16.80;11.73;;;;;;;4.76;100.00;98967.69;4991949;28;20031;-65
2021/12/09 02:38:19;;;;;;;18.95;9.13;;;;;;;4.73;100.00;98975.69;4991206;28;20053;-65
2021/12/09 02:40:48;;;;;;;11.60;6.97;;;;;;;4.63;100.00;98971.56;4994640;28;20029;-65
2021/12/09 02:43:14;;;;;;;14.90;6.72;;;;;;;4.60;100.00;98970.75;4983975;28;20259;-65
2021/12/09 02:45:41;;;;;;;15.30;7.13;;;;;;;4.50;100.00;98974.56;4991428;28;20084;-65
2021/12/09 02:48:07;;;;;;;11.60;5.97;;;;;;;4.46;100.00;98986.94;4990862;28;20054;-65
2021/12/09 02:50:33;;;;;;;9.32;5.20;;;;;;;4.35;100.00;98981.03;4997959;28;20060;-65
2021/12/09 02:52:59;;;;;;;8.75;5.70;;;;;;;4.28;100.00;98979.47;4989864;28;20038;-65
2021/12/09 02:55:24;;;;;;;9.00;5.38;;;;;;;4.23;100.00;98989.25;4971624;28;20023;-65
2021/12/09 02:57:53;;;;;;;13.73;6.07;;;;;;;4.23;100.00;98994.50;4978363;28;20022;-65
2021/12/09 03:00:20;;;;;;;11.77;6.15;;;;;;;4.21;100.00;98993.69;4978729;28;20082;-65
2021/12/09 03:02:46;;;;;;;10.25;6.22;;;;;;;4.14;100.00;99002.59;4973150;28;20033;-65
2021/12/09 03:05:12;;;;;;;12.70;7.15;;;;;;;4.13;100.00;98994.75;4984442;28;20518;-65
2021/12/09 03:07:41;;;;;;;10.77;6.55;;;;;;;4.18;100.00;99000.78;4990384;28;20030;-65
2021/12/09 03:10:19;;;;;;;12.98;5.75;;;;;;;4.15;100.00;99006.13;4981500;28;20022;-65
2021/12/09 03:12:48;;;;;;;12.52;5.30;;;;;;;4.07;100.00;99014.16;4989867;28;20112;-65
2021/12/09 03:15:14;;;;;;;10.35;5.05;;;;;;;4.03;100.00;99021.28;4984521;28;20070;-65
2021/12/09 03:17:42;;;;;;;11.90;5.90;;;;;;;4.03;100.00;99023.03;4975348;28;20034;-65
2021/12/09 03:20:11;;;;;;;12.73;6.03;;;;;;;4.03;100.00;99025.69;4970450;28;20034;-65
2021/12/09 03:22:37;;;;;;;11.23;6.18;;;;;;;4.04;100.00;99027.38;4984317;28;20027;-65
2021/12/09 03:25:05;;;;;;;10.98;5.80;;;;;;;4.07;100.00;99029.94;4970899;28;20029;-65
2021/12/09 03:27:30;;;;;;;12.13;6.55;;;;;;;4.07;100.00;99026.47;4971519;28;20038;-65
2021/12/09 03:29:56;;;;;;;12.05;6.20;;;;;;;4.15;100.00;99021.91;4974080;28;20026;-65
2021/12/09 03:32:23;;;;;;;11.65;5.95;;;;;;;4.30;100.00;99026.81;4983262;28;20030;-65
2021/12/09 03:34:49;;;;;;;17.15;6.30;;;;;;;4.35;100.00;99038.94;4990232;28;20022;-65
2021/12/09 03:37:20;;;;;;;12.95;6.20;;;;;;;4.37;100.00;99037.16;4980648;28;20030;-65
2021/12/09 03:39:46;;;;;;;9.43;6.47;;;;;;;4.37;100.00;99037.16;4989534;28;20648;-65
2021/12/09 03:42:15;;;;;;;15.23;8.05;;;;;;;4.41;100.00;99044.09;4989983;28;20038;-65
2021/12/09 03:44:42;;;;;;;11.52;6.60;;;;;;;4.42;100.00;99055.47;4989138;28;20095;-65
2021/12/09 03:47:11;;;;;;;14.38;6.43;;;;;;;4.34;100.00;99049.50;4976723;28;20026;-65
2021/12/09 03:49:37;;;;;;;11.23;6.88;;;;;;;4.32;100.00;99048.69;4971054;28;20133;-65
2021/12/09 03:52:04;;;;;;;8.63;6.05;;;;;;;4.31;100.00;99047.84;4980084;28;20030;-65
2021/12/09 03:54:29;;;;;;;11.13;6.55;;;;;;;4.31;100.00;99036.44;4982521;28;20030;-65
2021/12/09 03:56:56;;;;;;;12.27;6.63;;;;;;;4.37;100.00;99050.31;4989936;28;20038;-65
2021/12/09 03:59:22;;;;;;;12.98;6.63;;;;;;;4.38;100.00;99054.69;4991042;28;20402;-65
2021/12/09 04:01:48;;;;;;;8.65;5.65;;;;;;;4.41;100.00;99059.00;4986078;28;20023;-65
2021/12/09 04:04:15;;;;;;;12.80;6.32;;;;;;;4.37;100.00;99067.88;4990521;28;20018;-65
2021/12/09 04:06:41;;;;;;;13.70;5.60;;;;;;;4.31;100.00;99074.16;4986313;28;20086;-65
2021/12/09 04:09:10;;;;;;;10.73;6.00;;;;;;;4.32;100.00;99070.59;4990278;28;20556;-65
2021/12/09 04:11:36;;;;;;;10.25;6.30;;;;;;;4.30;100.00;99072.41;4992135;28;20018;-65
2021/12/09 04:14:03;;;;;;;15.35;6.95;;;;;;;4.26;100.00;99062.88;4990292;28;20043;-65
2021/12/09 04:16:29;;;;;;;11.30;6.22;;;;;;;4.26;100.00;99060.22;4992675;28;20514;-65
2021/12/09 04:18:55;;;;;;;11.63;6.47;;;;;;;4.31;100.00;99060.13;5009520;28;20113;-65
2021/12/09 04:21:20;;;;;;;15.00;6.90;;;;;;;4.35;100.00;99051.25;5004680;28;20041;-65
2021/12/09 04:23:46;;;;;;;19.90;6.38;;;;;;;4.38;100.00;99051.19;4990224;28;20578;-65
2021/12/09 04:26:11;;;;;;;13.90;6.47;;;;;;;4.43;100.00;99052.78;4993655;28;20098;-65
2021/12/09 04:28:38;;;;;;;11.13;6.05;;;;;;;4.45;100.00;99053.63;4984351;28;20483;-65
2021/12/09 04:31:04;;;;;;;12.88;6.00;;;;;;;4.49;100.00;99057.06;4993667;28;20610;-65
2021/12/09 04:33:32;;;;;;;10.57;5.93;;;;;;;4.48;100.00;99066.72;4991470;28;20105;-65
2021/12/09 04:35:58;;;;;;;11.50;6.45;;;;;;;4.51;100.00;99061.41;4985878;28;20026;-65
2021/12/09 04:38:23;;;;;;;15.25;6.38;;;;;;;4.48;100.00;99060.59;4992132;28;20425;-65
2021/12/09 04:40:49;;;;;;;8.20;5.63;;;;;;;4.51;100.00;99066.66;4990864;28;20128;-64
2021/12/09 04:43:15;;;;;;;10.65;6.60;;;;;;;4.51;100.00;99066.66;4997670;28;20026;-65
2021/12/09 04:45:40;;;;;;;14.85;6.00;;;;;;;4.56;100.00;99075.31;4994910;28;20026;-65
2021/12/09 04:48:09;;;;;;;11.15;5.40;;;;;;;4.61;100.00;99076.06;4993011;28;20041;-65
2021/12/09 04:50:37;;;;;;;8.65;5.45;;;;;;;4.64;100.00;99068.09;4993512;28;20041;-65
2021/12/09 04:53:04;;;;;;;7.70;4.57;;;;;;;4.69;100.00;99065.34;4985745;28;20057;-65
2021/12/09 04:55:30;;;;;;;9.18;4.68;;;;;;;4.71;100.00;99069.66;4978024;28;20042;-63
2021/12/09 04:57:55;;;;;;;11.10;5.05;;;;;;;5.08;100.00;99074.88;4975255;28;20033;-65
2021/12/09 05:00:24;;;;;;;9.18;4.32;;;;;;;5.32;100.00;99077.75;4983898;28;20399;-66
2021/12/09 05:05:25;;;;;;;16.52;4.07;;;;;;;5.48;100.00;99087.88;4989272;28;20075;-63
2021/12/09 05:07:51;;;;;;;8.45;3.88;;;;;;;5.48;100.00;99090.53;5012516;28;20609;-65
2021/12/09 05:10:17;;;;;;;9.52;4.38;;;;;;;5.62;100.00;99091.03;4999884;28;20573;-65
2021/12/09 05:12:42;;;;;;;8.00;3.75;;;;;;;5.65;100.00;99085.66;4992705;28;20076;-65
2021/12/09 05:15:09;;;;;;;10.52;4.53;;;;;;;5.69;100.00;99095.19;4992021;28;20042;-65
2021/12/09 05:17:35;;;;;;;11.60;3.90;;;;;;;5.71;100.00;99091.63;4987283;28;20104;-65
2021/12/09 05:20:01;;;;;;;8.80;3.95;;;;;;;5.73;100.00;99094.22;4973049;28;20030;-65
2021/12/09 05:22:26;;;;;;;8.38;4.13;;;;;;;5.70;100.00;99086.41;4975938;28;20411;-65
2021/12/09 05:24:52;;;;;;;16.73;4.80;;;;;;;5.76;100.00;99102.03;4977629;28;20019;-65
2021/12/09 05:27:19;;;;;;;6.95;4.18;;;;;;;5.79;100.00;99104.59;4973312;28;20039;-65
2021/12/09 05:29:46;;;;;;;10.55;5.40;;;;;;;5.84;100.00;99105.38;4985110;28;20081;-65
2021/12/09 05:32:13;;;;;;;8.38;3.78;;;;;;;5.85;100.00;99107.13;4992118;28;20073;-65
2021/12/09 05:34:44;;;;;;;7.07;4.10;;;;;;;5.83;100.00;99093.94;4982173;28;20027;-65
2021/12/09 05:37:16;;;;;;;12.02;4.82;;;;;;;5.77;100.00;99099.38;4992114;28;20034;-65
2021/12/09 05:39:42;;;;;;;12.75;4.00;;;;;;;5.87;100.00;99103.50;4990005;28;20030;-65
2021/12/09 05:42:09;;;;;;;8.15;4.20;;;;;;;5.67;100.00;99068.03;4977763;28;20056;-65
2021/12/09 05:44:36;;;;;;;15.43;5.20;;;;;;;5.86;100.00;99114.13;4972515;28;20102;-65
2021/12/09 05:47:04;;;;;;;9.90;4.45;;;;;;;5.90;100.00;99111.34;4978846;28;20506;-65
2021/12/09 05:49:30;;;;;;;13.73;6.60;;;;;;;5.96;100.00;99110.31;4972575;28;20088;-65
2021/12/09 05:51:56;;;;;;;12.05;5.10;;;;;;;5.96;100.00;99120.88;4975200;28;20478;-65
2021/12/09 05:54:21;;;;;;;16.95;5.85;;;;;;;5.96;100.00;99120.88;4989138;28;20030;-65
2021/12/09 05:56:47;;;;;;;12.45;5.38;;;;;;;5.95;100.00;99119.13;4992194;28;20061;-65
2021/12/09 05:59:12;;;;;;;11.57;6.07;;;;;;;6.00;100.00;99118.09;4982539;28;20030;-65
2021/12/09 06:01:39;;;;;;;11.25;5.90;;;;;;;6.02;100.00;99123.31;4981091;28;20442;-65
2021/12/09 06:04:06;;;;;;;11.10;6.00;;;;;;;6.03;100.00;99127.72;4991653;28;20383;-65
2021/12/09 06:06:33;;;;;;;7.40;3.97;;;;;;;6.01;100.00;99135.63;4989308;28;20041;-65
2021/12/09 06:08:58;;;;;;;8.77;4.88;;;;;;;5.85;100.00;99144.06;4983614;28;20035;-65
2021/12/09 06:11:26;;;;;;;9.70;4.72;;;;;;;5.55;100.00;99139.56;4991061;28;20430;-65
2021/12/09 06:13:52;;;;;;;7.88;4.68;;;;;;;5.89;100.00;99153.59;4994046;28;20173;-65
2021/12/09 06:16:19;;;;;;;9.65;5.25;;;;;;;5.99;100.00;99152.44;4991102;28;20026;-65
2021/12/09 06:18:45;;;;;;;10.57;5.38;;;;;;;6.06;100.00;99148.72;4991449;28;20169;-65
2021/12/09 06:21:10;;;;;;;7.50;4.40;;;;;;;6.08;100.00;99157.47;4990897;28;20034;-65
2021/12/09 06:23:36;;;;;;;11.27;5.45;;;;;;;6.09;100.00;99151.28;4987101;28;20018;-65
2021/12/09 06:26:02;;;;;;;10.48;5.60;;;;;;;6.08;100.00;99165.41;4982389;28;20047;-65
2021/12/09 06:28:27;;;;;;;13.70;5.70;;;;;;;6.09;100.00;99154.78;4988843;28;20477;-65
2021/12/09 06:30:53;;;;;;;12.23;5.28;;;;;;;6.12;100.00;99164.38;4984417;28;20030;-65
2021/12/09 06:33:18;;;;;;;11.68;4.82;;;;;;;6.10;100.00;99166.19;4971921;28;20035;-65
2021/12/09 06:35:44;;;;;;;8.40;4.55;;;;;;;6.09;100.00;99167.13;4981287;28;20089;-65
2021/12/09 06:38:14;;;;;;;17.05;6.10;;;;;;;6.04;100.00;99154.06;4983516;28;20153;-65
2021/12/09 06:40:40;;;;;;;14.20;6.65;;;;;;;6.15;100.00;99172.22;4987917;28;20418;-65
2021/12/09 06:43:06;;;;;;;10.38;5.75;;;;;;;6.19;100.00;99168.59;4981349;28;20479;-65
2021/12/09 06:45:33;;;;;;;16.38;8.68;;;;;;;6.22;100.00;99171.13;4989800;28;20091;-65
2021/12/09 06:47:58;;;;;;;14.90;7.90;;;;;;;6.16;100.00;99163.41;4988368;28;20116;-65
2021/12/09 06:50:24;;;;;;;12.95;7.45;;;;;;;6.20;100.00;99163.25;4988283;28;20042;-65
2021/12/09 06:52:51;;;;;;;14.35;8.38;;;;;;;6.23;100.00;99164.94;4990170;28;20041;-65
2021/12/09 06:55:18;;;;;;;17.92;10.05;;;;;;;6.28;100.00;99165.66;4980623;28;20038;-65
2021/12/09 06:57:44;;;;;;;17.58;10.25;;;;;;;6.30;100.00;99171.78;5007391;28;20057;-65
2021/12/09 07:00:14;;;;;;;20.33;11.05;;;;;;;6.29;100.00;99167.41;4992664;28;20037;-65
2021/12/09 07:02:39;;;;;;;27.52;13.88;;;;;;;6.31;100.00;99181.44;4986765;28;20034;-65
2021/12/09 07:05:07;;;;;;;15.95;9.75;;;;;;;6.30;100.00;99171.78;4989361;28;20073;-65
2021/12/09 07:07:34;;;;;;;18.65;9.18;;;;;;;6.29;100.00;99175.34;4989563;28;20540;-65
2021/12/09 07:10:00;;;;;;;19.83;10.73;;;;;;;6.26;100.00;99171.00;4979147;28;20101;-65
2021/12/09 07:12:25;;;;;;;37.58;13.43;;;;;;;6.33;100.00;99179.59;4972041;28;20483;-65
2021/12/09 07:14:51;;;;;;;19.95;11.32;;;;;;;6.35;100.00;99185.72;4986982;28;20042;-65
2021/12/09 07:17:17;;;;;;;24.15;13.88;;;;;;;6.37;100.00;99176.84;4988524;28;20109;-66
2021/12/09 07:19:43;;;;;;;30.13;16.77;;;;;;;6.40;100.00;99170.59;4987220;28;20501;-65
2021/12/09 07:22:09;;;;;;;26.77;16.02;;;;;;;6.36;100.00;99172.47;4990000;28;20026;-65
2021/12/09 07:24:35;;;;;;;26.55;14.30;;;;;;;6.32;100.00;99164.69;4986498;28;20030;-65
2021/12/09 07:27:01;;;;;;;24.63;15.25;;;;;;;6.37;100.00;99173.34;4989533;28;20525;-65
2021/12/09 07:29:27;;;;;;;26.52;15.50;;;;;;;6.36;100.00;99182.16;4988572;28;20034;-65
2021/12/09 07:31:53;;;;;;;25.27;13.85;;;;;;;6.37;100.00;99178.63;4990581;28;20494;-66
2021/12/09 07:34:18;;;;;;;22.35;12.85;;;;;;;6.38;100.00;99188.25;4978938;28;20026;-65
2021/12/09 07:36:44;;;;;;;27.75;13.60;;;;;;;6.35;100.00;99183.94;4987064;28;20034;-65
2021/12/09 07:39:09;;;;;;;23.55;13.73;;;;;;;6.35;100.00;99189.22;4978646;28;20021;-65
2021/12/09 07:41:35;;;;;;;25.80;14.63;;;;;;;6.38;100.00;99189.13;4984924;28;20290;-65
2021/12/09 07:44:02;;;;;;;24.40;14.38;;;;;;;6.43;100.00;99199.56;4983401;28;20026;-65
2021/12/09 07:46:29;;;;;;;26.52;14.30;;;;;;;6.38;100.00;99189.13;4984101;28;20398;-65
2021/12/09 07:48:55;;;;;;;25.00;14.88;;;;;;;6.37;100.00;99191.81;4988529;28;20034;-65
2021/12/09 07:51:20;;;;;;;23.20;13.75;;;;;;;6.36;100.00;99195.34;4990189;28;20037;-65
2021/12/09 07:53:46;;;;;;;24.15;14.10;;;;;;;6.34;100.00;99195.41;4979954;28;20031;-65
2021/12/09 07:56:11;;;;;;;21.35;11.80;;;;;;;6.33;100.00;99203.38;4974018;28;20033;-65
2021/12/09 07:58:37;;;;;;;24.42;12.85;;;;;;;6.32;100.00;99199.00;4977231;28;20050;-65
2021/12/09 08:01:03;;;;;;;23.80;12.73;;;;;;;6.30;100.00;99212.25;4989437;28;20034;-65
2021/12/09 08:03:28;;;;;;;21.98;11.43;;;;;;;6.31;100.00;99211.34;4979052;28;20031;-65
2021/12/09 08:05:54;;;;;;;20.30;11.65;;;;;;;6.31;100.00;99218.44;4970968;28;20557;-65
2021/12/09 08:08:19;;;;;;;43.78;19.55;;;;;;;6.31;100.00;99215.78;4976709;28;20029;-65
2021/12/09 08:10:45;;;;;;;35.70;21.40;;;;;;;6.35;100.00;99220.03;4979077;28;20431;-65
2021/12/09 08:13:12;;;;;;;56.17;27.73;;;;;;;6.34;100.00;99218.34;4989213;28;20026;-65
2021/12/09 08:15:45;;;;;;;86.75;35.80;;;;;;;6.32;100.00;99214.84;4989337;28;20030;-65
2021/12/09 08:18:26;;;;;;;106.70;43.10;;;;;;;6.34;100.00;99229.75;4984352;28;20054;-65
2021/12/09 08:20:56;;;;;;;84.65;38.47;;;;;;;6.39;100.00;99225.19;4987724;28;20033;-65
2021/12/09 08:23:22;;;;;;;139.77;64.68;;;;;;;6.47;100.00;99225.84;4989583;28;20574;-65
2021/12/09 08:25:48;;;;;;;100.13;44.75;;;;;;;6.55;100.00;99230.91;4985492;28;20038;-65
2021/12/09 08:28:14;;;;;;;45.20;23.95;;;;;;;6.57;100.00;99229.09;4974203;28;20026;-65
2021/12/09 08:30:40;;;;;;;23.95;13.75;;;;;;;6.67;100.00;99247.25;4988186;28;20023;-65
2021/12/09 08:33:09;;;;;;;22.77;12.02;;;;;;;6.70;100.00;99248.97;4982040;28;20065;-66
2021/12/09 08:35:36;;;;;;;27.35;12.57;;;;;;;6.68;100.00;99245.50;4977855;28;20516;-65
2021/12/09 08:38:04;;;;;;;17.45;10.50;;;;;;;6.69;100.00;99252.50;4990960;28;20036;-65
2021/12/09 08:40:29;;;;;;;15.52;9.73;;;;;;;6.59;100.00;99258.97;4985765;28;20023;-65
2021/12/09 08:42:56;;;;;;;17.05;7.88;;;;;;;6.52;100.00;99265.34;4987966;28;20038;-65
2021/12/09 08:45:21;;;;;;;15.40;7.78;;;;;;;6.48;100.00;99264.56;4991003;28;20398;-65
2021/12/09 08:47:48;;;;;;;14.95;6.78;;;;;;;6.38;100.00;99265.72;4991739;28;20030;-65
2021/12/09 08:50:19;;;;;;;13.65;6.45;;;;;;;6.37;100.00;99277.22;4988442;28;20034;-65
2021/12/09 08:52:46;;;;;;;15.02;7.13;;;;;;;6.45;100.00;99277.00;5001314;28;20049;-65
2021/12/09 08:55:11;;;;;;;14.55;6.72;;;;;;;6.46;100.00;99276.06;4985576;28;20034;-65
2021/12/09 08:57:37;;;;;;;12.88;7.70;;;;;;;6.55;100.00;99276.69;4992456;28;20462;-65
2021/12/09 09:00:11;;;;;;;15.70;9.00;;;;;;;6.55;100.00;99283.75;4991666;28;20022;-65
2021/12/09 09:02:40;;;;;;;11.07;5.72;;;;;;;6.58;100.00;99281.03;4985505;28;20538;-65
2021/12/09 09:05:08;;;;;;;17.75;6.47;;;;;;;6.65;100.00;99287.88;4970171;28;20031;-66
2021/12/09 09:07:33;;;;;;;9.30;5.68;;;;;;;6.47;100.00;99269.91;4971622;28;20019;-66
2021/12/09 09:09:59;;;;;;;11.27;6.03;;;;;;;6.44;100.00;99288.47;4975684;28;20041;-66
2021/12/09 09:12:26;;;;;;;11.30;5.78;;;;;;;6.48;100.00;99287.47;4979830;28;20526;-65
2021/12/09 09:14:52;;;;;;;12.55;5.00;;;;;;;6.56;100.00;99293.41;4973665;28;20491;-65
2021/12/09 09:17:17;;;;;;;8.23;4.60;;;;;;;6.64;100.00;99300.19;4982348;28;20014;-65
2021/12/09 09:19:43;;;;;;;10.18;4.35;;;;;;;6.73;100.00;99291.16;4991936;28;20026;-65
2021/12/09 09:22:08;;;;;;;11.82;4.60;;;;;;;6.84;99.32;99294.34;4987912;28;20023;-66
2021/12/09 09:24:34;;;;;;;14.00;5.45;;;;;;;7.00;99.10;99300.91;4978326;28;20387;-65
2021/12/09 09:26:59;;;;;;;14.57;4.82;;;;;;;7.16;99.33;99296.03;4973697;28;20027;-64
2021/12/09 09:29:25;;;;;;;8.95;4.78;;;;;;;7.28;98.23;99307.09;4982226;28;20026;-66
2021/12/09 09:31:52;;;;;;;8.80;4.57;;;;;;;7.48;97.11;99303.84;4973949;28;20023;-65
2021/12/09 09:34:18;;;;;;;8.05;3.78;;;;;;;7.47;95.27;99302.97;4976388;28;20518;-65
2021/12/09 09:36:44;;;;;;;9.63;3.70;;;;;;;7.50;94.41;99308.16;4980482;28;20081;-65
2021/12/09 09:39:18;;;;;;;8.30;3.85;;;;;;;7.69;94.07;99317.25;4993031;28;20471;-65
2021/12/09 09:41:56;;;;;;;7.15;4.70;;;;;;;7.85;93.13;99304.38;4990478;28;20471;-65
2021/12/09 09:44:28;;;;;;;7.07;4.38;;;;;;;7.66;90.48;99312.06;4977446;28;20029;-67
2021/12/09 09:46:57;;;;;;;14.80;4.38;;;;;;;7.54;90.97;99309.81;4973340;28;20031;-67
2021/12/09 09:49:23;;;;;;;9.95;4.18;;;;;;;7.62;91.60;99317.50;4983322;28;20023;-66
2021/12/09 09:51:49;;;;;;;6.88;3.70;;;;;;;7.54;90.35;99314.25;4995449;28;20620;-66
2021/12/09 09:54:15;;;;;;;9.98;3.53;;;;;;;7.62;90.17;99317.50;4993377;28;20038;-66
2021/12/09 09:56:42;;;;;;;5.82;3.60;;;;;;;7.60;90.54;99320.19;4991669;28;20397;-66
2021/12/09 09:59:09;;;;;;;10.65;3.33;;;;;;;7.61;90.97;99327.22;4991775;28;20388;-66
2021/12/09 10:01:37;;;;;;;8.02;3.78;;;;;;;7.66;91.25;99335.88;4993007;28;20037;-66
2021/12/09 10:04:13;;;;;;;7.22;3.35;;;;;;;7.72;90.96;99335.69;4992386;28;20108;-66
2021/12/09 10:06:43;;;;;;;7.70;3.83;;;;;;;7.65;91.06;99317.41;4987252;28;20077;-66
2021/12/09 10:09:11;;;;;;;8.48;3.45;;;;;;;7.74;90.16;99327.72;4988547;28;20165;-66
2021/12/09 10:11:37;;;;;;;7.90;4.20;;;;;;;7.65;89.94;99323.56;4991544;28;20050;-66
2021/12/09 10:14:12;;;;;;;10.48;5.22;;;;;;;7.73;90.15;99318.88;4984697;28;20223;-66
2021/12/09 10:16:38;;;;;;;7.13;3.35;;;;;;;7.74;88.60;99312.66;4984852;28;20033;-66
2021/12/09 10:19:17;;;;;;;10.48;4.47;;;;;;;7.97;89.77;99310.13;4974845;28;20043;-65
2021/12/09 10:21:43;;;;;;;9.20;4.15;;;;;;;8.36;89.69;99307.06;4991960;28;20022;-66
2021/12/09 10:24:09;;;;;;;6.57;3.17;;;;;;;8.67;87.17;99298.00;4994442;28;20030;-66
2021/12/09 10:26:41;;;;;;;8.32;3.90;;;;;;;9.01;85.92;99301.13;4993486;28;20034;-66
2021/12/09 10:29:35;;;;;;;5.25;2.92;;;;;;;9.16;83.16;99299.66;4983821;28;20037;-66
2021/12/09 10:32:05;;;;;;;6.00;3.28;;;;;;;9.12;82.19;99287.44;5006193;28;20076;-65
2021/12/09 10:34:37;;;;;;;5.95;3.38;;;;;;;9.10;81.26;99299.91;4990689;28;20088;-65
2021/12/09 10:37:04;;;;;;;6.43;3.53;;;;;;;8.59;81.98;99300.06;4975396;28;20410;-66
2021/12/09 10:39:40;;;;;;;4.95;2.90;;;;;;;8.89;81.03;99288.34;4989788;28;20034;-66
2021/12/09 10:42:14;;;;;;;8.05;3.50;;;;;;;8.76;80.89;99292.38;4984641;28;20033;-66
2021/12/09 10:45:00;;;;;;;7.38;3.55;;;;;;;8.64;81.92;99295.44;4992191;28;20022;-66
2021/12/09 10:50:20;;;;;;;6.72;3.63;;;;;;;8.45;82.81;99296.16;4972235;28;20034;-65
2021/12/09 10:52:56;;;;;;;6.60;2.70;;;;;;;8.50;84.07;99302.19;4977005;28;20030;-66
2021/12/09 10:55:34;;;;;;;5.57;2.50;;;;;;;8.49;84.00;99289.81;4974247;28;20096;-66
2021/12/09 10:58:10;;;;;;;8.55;3.28;;;;;;;8.35;85.27;99284.16;4987424;28;20372;-65
2021/12/09 11:00:43;;;;;;;11.95;3.85;;;;;;;8.58;85.45;99278.91;4976416;28;20403;-65
2021/12/09 11:03:13;;;;;;;8.30;3.13;;;;;;;8.75;84.42;99282.66;4970774;28;20415;-65
2021/12/09 11:05:50;;;;;;;5.78;3.47;;;;;;;9.00;83.21;99280.81;4991937;28;20323;-65
2021/12/09 11:08:19;;;;;;;5.13;3.13;;;;;;;9.19;82.23;99275.69;4991097;28;20113;-65
2021/12/09 11:10:48;;;;;;;6.18;2.83;;;;;;;9.00;80.20;99269.34;4982160;28;20038;-66
2021/12/09 11:13:17;;;;;;;6.18;3.10;;;;;;;9.25;80.56;99275.44;4974534;28;20031;-66
2021/12/09 11:15:56;;;;;;;6.60;3.20;;;;;;;9.88;79.20;99267.53;4974484;28;20563;-66
2021/12/09 11:18:38;;;;;;;8.10;4.10;;;;;;;10.56;75.57;99267.25;4985987;28;20037;-65
2021/12/09 11:21:06;;;;;;;5.80;3.13;;;;;;;10.41;72.13;99252.84;4991939;28;20026;-65
2021/12/09 11:23:36;;;;;;;8.73;3.00;;;;;;;10.37;72.83;99269.88;4989176;28;20022;-66
2021/12/09 11:26:24;;;;;;;5.13;3.10;;;;;;;9.93;73.60;99268.22;4991613;28;20053;-65
2021/12/09 11:28:59;;;;;;;8.43;3.55;;;;;;;9.86;75.25;99253.47;4988607;28;20487;-65
2021/12/09 11:31:29;;;;;;;7.68;3.42;;;;;;;10.03;75.63;99261.56;4991634;28;20030;-66
2021/12/09 11:34:04;;;;;;;17.45;6.68;;;;;;;9.94;75.19;99261.09;4990441;28;20046;-66